Charfield, United Kingdom
Current Conditions -  °F | °C
As of 5:58 AM on Friday 31 Oct 2014 (Local Time) from EGVA Reporting Station
Clear Clear  
Wind Chill: 57°   Ceiling: Unl
Heat Index: 57°   Visibility: 6mi
Dew Point: 57°   Wind: 8mph
Humidity: 99%   Direction: 180°S
Pressure: 30"   Gusts: NA
Location:  51.63°N, 2.41°W
Report Text: EGVA 310558Z AUTO 18007KT 9999 CLR 14/14 A3000 RMK AO2 SLP162 P2400 614742 T01390138 10148 20122 57005
Loading
Personal Weather Stations






























Interactive Weather Map
Tropical Storm Tracking
New forecast layout! Learn more

10-Day Weather Forecast

Advertisements
Track Severe Weather on mobile